sensor_id;sensor_type;location;lat;lon;timestamp;pressure;altitude;pressure_sealevel;temperature;humidity
47785;BME280;35233;55.686;37.848;2023-02-10T00:00:04;100867.66;;;9.19;52.79
47785;BME280;35233;55.686;37.848;2023-02-10T00:02:30;100866.72;;;9.22;52.81
47785;BME280;35233;55.686;37.848;2023-02-10T00:04:55;100851.84;;;9.12;52.71
47785;BME280;35233;55.686;37.848;2023-02-10T00:07:21;100857.09;;;9.19;52.78
47785;BME280;35233;55.686;37.848;2023-02-10T00:09:47;100842.16;;;9.17;52.70
47785;BME280;35233;55.686;37.848;2023-02-10T00:12:14;100843.03;;;9.16;52.74
47785;BME280;35233;55.686;37.848;2023-02-10T00:14:40;100838.63;;;9.18;52.76
47785;BME280;35233;55.686;37.848;2023-02-10T00:17:05;100848.28;;;9.19;52.74
47785;BME280;35233;55.686;37.848;2023-02-10T00:19:31;100844.81;;;9.17;52.71
47785;BME280;35233;55.686;37.848;2023-02-10T00:21:58;100839.53;;;9.15;52.80
47785;BME280;35233;55.686;37.848;2023-02-10T00:24:24;100836.03;;;9.15;52.54
47785;BME280;35233;55.686;37.848;2023-02-10T00:26:51;100836.88;;;9.15;52.58
47785;BME280;35233;55.686;37.848;2023-02-10T00:29:16;100833.38;;;9.15;52.68
47785;BME280;35233;55.686;37.848;2023-02-10T00:31:42;100821.94;;;9.17;52.48
47785;BME280;35233;55.686;37.848;2023-02-10T00:34:11;100817.56;;;9.15;52.47
47785;BME280;35233;55.686;37.848;2023-02-10T00:36:37;100816.69;;;9.17;52.55
47785;BME280;35233;55.686;37.848;2023-02-10T00:39:02;100815.78;;;9.15;52.62
47785;BME280;35233;55.686;37.848;2023-02-10T00:41:28;100812.31;;;9.12;52.41
47785;BME280;35233;55.686;37.848;2023-02-10T00:43:53;100808.78;;;9.13;52.46
47785;BME280;35233;55.686;37.848;2023-02-10T00:46:20;100815.81;;;9.14;52.15
47785;BME280;35233;55.686;37.848;2023-02-10T00:48:46;100794.75;;;9.11;52.42
47785;BME280;35233;55.686;37.848;2023-02-10T00:51:13;100793.84;;;9.15;52.30
47785;BME280;35233;55.686;37.848;2023-02-10T00:53:39;100793.84;;;9.12;52.31
47785;BME280;35233;55.686;37.848;2023-02-10T00:56:05;100792.97;;;9.11;52.32
47785;BME280;35233;55.686;37.848;2023-02-10T00:58:30;100789.47;;;9.11;52.29
47785;BME280;35233;55.686;37.848;2023-02-10T01:00:56;100776.31;;;9.06;52.27
47785;BME280;35233;55.686;37.848;2023-02-10T01:03:22;100787.69;;;9.10;52.20
47785;BME280;35233;55.686;37.848;2023-02-10T01:05:48;100774.53;;;9.06;52.29
47785;BME280;35233;55.686;37.848;2023-02-10T01:08:14;100763.97;;;9.10;52.35
47785;BME280;35233;55.686;37.848;2023-02-10T01:10:40;100769.28;;;9.08;52.41
47785;BME280;35233;55.686;37.848;2023-02-10T01:13:07;100763.97;;;9.10;52.16
47785;BME280;35233;55.686;37.848;2023-02-10T01:15:33;100750.78;;;9.10;52.31
47785;BME280;35233;55.686;37.848;2023-02-10T01:17:59;100741.13;;;9.07;52.43
47785;BME280;35233;55.686;37.848;2023-02-10T01:20:25;100742.03;;;9.07;52.52
47785;BME280;35233;55.686;37.848;2023-02-10T01:22:51;100749.94;;;9.11;52.37
47785;BME280;35233;55.686;37.848;2023-02-10T01:25:18;100740.25;;;9.06;52.47
47785;BME280;35233;55.686;37.848;2023-02-10T01:27:44;100737.63;;;9.08;52.07
47785;BME280;35233;55.686;37.848;2023-02-10T01:30:10;100732.38;;;9.03;52.37
47785;BME280;35233;55.686;37.848;2023-02-10T01:32:35;100728.00;;;9.02;52.08
47785;BME280;35233;55.686;37.848;2023-02-10T01:35:01;100733.25;;;9.09;52.25
47785;BME280;35233;55.686;37.848;2023-02-10T01:37:27;100721.84;;;9.02;52.13
47785;BME280;35233;55.686;37.848;2023-02-10T01:39:52;100724.44;;;9.06;51.91
47785;BME280;35233;55.686;37.848;2023-02-10T01:42:18;100711.28;;;9.06;52.35
47785;BME280;35233;55.686;37.848;2023-02-10T01:47:09;100714.78;;;9.04;52.13
47785;BME280;35233;55.686;37.848;2023-02-10T01:49:38;100706.06;;;8.99;52.31
47785;BME280;35233;55.686;37.848;2023-02-10T01:52:09;100717.44;;;9.05;52.34
47785;BME280;35233;55.686;37.848;2023-02-10T01:57:06;100713.06;;;9.03;52.04
47785;BME280;35233;55.686;37.848;2023-02-10T01:59:35;100706.88;;;9.04;52.33
47785;BME280;35233;55.686;37.848;2023-02-10T02:02:01;100706.91;;;9.02;52.24
47785;BME280;35233;55.686;37.848;2023-02-10T02:04:47;100708.69;;;9.02;52.22
47785;BME280;35233;55.686;37.848;2023-02-10T02:07:13;100706.91;;;9.02;52.15
47785;BME280;35233;55.686;37.848;2023-02-10T02:09:40;100692.00;;;8.95;51.96
47785;BME280;35233;55.686;37.848;2023-02-10T02:17:32;100702.50;;;9.04;52.07
47785;BME280;35233;55.686;37.848;2023-02-10T02:28:55;100682.31;;;9.02;51.97
47785;BME280;35233;55.686;37.848;2023-02-10T02:31:40;100670.88;;;9.01;51.93
47785;BME280;35233;55.686;37.848;2023-02-10T02:37:01;100648.06;;;8.96;51.95
47785;BME280;35233;55.686;37.848;2023-02-10T02:39:28;100659.50;;;8.99;51.98
47785;BME280;35233;55.686;37.848;2023-02-10T02:42:21;100649.84;;;8.97;51.87
47785;BME280;35233;55.686;37.848;2023-02-10T02:44:51;100643.66;;;8.98;51.96
47785;BME280;35233;55.686;37.848;2023-02-10T02:53:09;100634.91;;;8.97;52.04
47785;BME280;35233;55.686;37.848;2023-02-10T02:58:34;100621.72;;;8.96;51.96
47785;BME280;35233;55.686;37.848;2023-02-10T03:01:12;100617.34;;;8.95;52.12
47785;BME280;35233;55.686;37.848;2023-02-10T03:03:39;100605.97;;;8.88;51.84
47785;BME280;35233;55.686;37.848;2023-02-10T03:06:04;100607.72;;;8.91;51.97
47785;BME280;35233;55.686;37.848;2023-02-10T03:08:33;100602.47;;;8.86;51.96
47785;BME280;35233;55.686;37.848;2023-02-10T03:10:59;100611.19;;;8.94;52.03
47785;BME280;35233;55.686;37.848;2023-02-10T03:13:25;100605.06;;;8.92;51.85
47785;BME280;35233;55.686;37.848;2023-02-10T03:15:50;100589.28;;;8.88;51.78
47785;BME280;35233;55.686;37.848;2023-02-10T03:18:16;100586.66;;;8.83;51.78
47785;BME280;35233;55.686;37.848;2023-02-10T03:20:42;100591.91;;;8.91;52.00
47785;BME280;35233;55.686;37.848;2023-02-10T03:23:09;100586.66;;;8.88;51.90
47785;BME280;35233;55.686;37.848;2023-02-10T03:25:34;100589.28;;;8.86;51.79
47785;BME280;35233;55.686;37.848;2023-02-10T03:28:00;100583.09;;;8.92;51.85
47785;BME280;35233;55.686;37.848;2023-02-10T03:30:26;100578.72;;;8.89;51.71
47785;BME280;35233;55.686;37.848;2023-02-10T03:32:51;100571.72;;;8.88;51.78
47785;BME280;35233;55.686;37.848;2023-02-10T03:35:19;100568.22;;;8.86;51.71
47785;BME280;35233;55.686;37.848;2023-02-10T03:37:44;100564.69;;;8.89;51.80
47785;BME280;35233;55.686;37.848;2023-02-10T03:40:11;100560.31;;;8.88;51.72
47785;BME280;35233;55.686;37.848;2023-02-10T03:42:36;100554.13;;;8.89;51.91
47785;BME280;35233;55.686;37.848;2023-02-10T03:45:02;100540.97;;;8.87;51.93
47785;BME280;35233;55.686;37.848;2023-02-10T03:47:28;100536.63;;;8.81;51.79
47785;BME280;35233;55.686;37.848;2023-02-10T03:49:53;100547.09;;;8.89;51.84
47785;BME280;35233;55.686;37.848;2023-02-10T03:52:19;100537.47;;;8.85;51.87
47785;BME280;35233;55.686;37.848;2023-02-10T03:54:44;100537.47;;;8.87;51.76
47785;BME280;35233;55.686;37.848;2023-02-10T03:57:10;100526.91;;;8.87;51.70
47785;BME280;35233;55.686;37.848;2023-02-10T03:59:36;100528.69;;;8.88;51.74
47785;BME280;35233;55.686;37.848;2023-02-10T04:02:01;100526.91;;;8.88;51.83
47785;BME280;35233;55.686;37.848;2023-02-10T04:04:28;100519.00;;;8.88;51.74
47785;BME280;35233;55.686;37.848;2023-02-10T04:06:53;100505.91;;;8.82;51.59
47785;BME280;35233;55.686;37.848;2023-02-10T04:09:19;100511.97;;;8.87;51.54
47785;BME280;35233;55.686;37.848;2023-02-10T04:11:45;100511.97;;;8.87;51.68
47785;BME280;35233;55.686;37.848;2023-02-10T04:14:10;100505.00;;;8.84;51.38
47785;BME280;35233;55.686;37.848;2023-02-10T04:16:36;100496.19;;;8.86;51.73
47785;BME280;35233;55.686;37.848;2023-02-10T04:19:02;100478.63;;;8.86;51.44
47785;BME280;35233;55.686;37.848;2023-02-10T04:21:28;100494.41;;;8.89;51.42
47785;BME280;35233;55.686;37.848;2023-02-10T04:23:53;100483.06;;;8.82;51.93
47785;BME280;35233;55.686;37.848;2023-02-10T04:26:19;100492.66;;;8.87;51.70
47785;BME280;35233;55.686;37.848;2023-02-10T04:28:44;100496.16;;;8.87;51.75
47785;BME280;35233;55.686;37.848;2023-02-10T04:31:10;100486.56;;;8.84;51.94
47785;BME280;35233;55.686;37.848;2023-02-10T04:33:36;100483.03;;;8.86;51.86
47785;BME280;35233;55.686;37.848;2023-02-10T04:36:02;100483.00;;;8.87;51.82
47785;BME280;35233;55.686;37.848;2023-02-10T04:38:28;100483.03;;;8.84;51.95
47785;BME280;35233;55.686;37.848;2023-02-10T04:40:53;100478.66;;;8.84;51.89
47785;BME280;35233;55.686;37.848;2023-02-10T04:43:19;100479.53;;;8.85;51.80
47785;BME280;35233;55.686;37.848;2023-02-10T04:45:45;100476.91;;;8.82;52.01
47785;BME280;35233;55.686;37.848;2023-02-10T04:48:11;100469.88;;;8.82;51.89
47785;BME280;35233;55.686;37.848;2023-02-10T04:50:37;100473.38;;;8.84;52.07
47785;BME280;35233;55.686;37.848;2023-02-10T04:53:03;100483.91;;;8.84;51.83
47785;BME280;35233;55.686;37.848;2023-02-10T04:55:29;100477.75;;;8.84;52.08
47785;BME280;35233;55.686;37.848;2023-02-10T04:57:54;100478.63;;;8.86;52.06
47785;BME280;35233;55.686;37.848;2023-02-10T05:00:20;100457.63;;;8.75;52.31
47785;BME280;35233;55.686;37.848;2023-02-10T05:02:46;100467.19;;;8.87;52.10
47785;BME280;35233;55.686;37.848;2023-02-10T05:05:12;100444.75;;;12.52;50.56
47785;BME280;35233;55.686;37.848;2023-02-10T05:07:38;100440.72;;;13.72;45.91
47785;BME280;35233;55.686;37.848;2023-02-10T05:10:04;100447.13;;;14.26;43.95
47785;BME280;35233;55.686;37.848;2023-02-10T05:12:30;100445.97;;;14.63;42.75
47785;BME280;35233;55.686;37.848;2023-02-10T05:14:55;100440.09;;;14.81;41.89
47785;BME280;35233;55.686;37.848;2023-02-10T05:17:21;100435.97;;;14.98;40.97
47785;BME280;35233;55.686;37.848;2023-02-10T05:19:46;100431.78;;;15.17;40.63
47785;BME280;35233;55.686;37.848;2023-02-10T05:22:12;100454.81;;;15.43;40.09
47785;BME280;35233;55.686;37.848;2023-02-10T05:24:37;100445.38;;;15.59;39.66
47785;BME280;35233;55.686;37.848;2023-02-10T05:27:03;100436.00;;;15.73;39.61
47785;BME280;35233;55.686;37.848;2023-02-10T05:29:29;100425.09;;;15.80;39.06
47785;BME280;35233;55.686;37.848;2023-02-10T05:31:54;100425.56;;;15.92;38.73
47785;BME280;35233;55.686;37.848;2023-02-10T05:34:20;100420.69;;;16.03;38.44
47785;BME280;35233;55.686;37.848;2023-02-10T05:36:45;100428.38;;;16.11;38.28
47785;BME280;35233;55.686;37.848;2023-02-10T05:39:11;100416.47;;;16.19;37.84
47785;BME280;35233;55.686;37.848;2023-02-10T05:41:52;100404.53;;;16.29;37.63
47785;BME280;35233;55.686;37.848;2023-02-10T05:44:18;100414.78;;;16.84;38.05
47785;BME280;35233;55.686;37.848;2023-02-10T05:46:44;100407.38;;;17.52;37.21
47785;BME280;35233;55.686;37.848;2023-02-10T05:49:09;100412.72;;;17.71;36.81
47785;BME280;35233;55.686;37.848;2023-02-10T05:51:35;100402.72;;;17.76;36.61
47785;BME280;35233;55.686;37.848;2023-02-10T05:54:00;100401.31;;;17.88;36.11
47785;BME280;35233;55.686;37.848;2023-02-10T05:56:26;100392.06;;;17.95;35.91
47785;BME280;35233;55.686;37.848;2023-02-10T05:58:51;100396.69;;;18.10;35.54
47785;BME280;35233;55.686;37.848;2023-02-10T06:01:17;100390.19;;;18.16;35.27
47785;BME280;35233;55.686;37.848;2023-02-10T06:03:42;100382.81;;;18.21;35.30
47785;BME280;35233;55.686;37.848;2023-02-10T06:06:07;100373.78;;;18.24;35.00
47785;BME280;35233;55.686;37.848;2023-02-10T06:08:33;100380.75;;;18.26;35.19
47785;BME280;35233;55.686;37.848;2023-02-10T06:10:58;100379.78;;;18.46;34.83
47785;BME280;35233;55.686;37.848;2023-02-10T06:13:24;100373.97;;;18.55;34.62
47785;BME280;35233;55.686;37.848;2023-02-10T06:15:49;100363.28;;;18.55;34.58
47785;BME280;35233;55.686;37.848;2023-02-10T06:18:15;100364.22;;;18.54;34.31
47785;BME280;35233;55.686;37.848;2023-02-10T06:20:41;100357.31;;;18.50;34.49
47785;BME280;35233;55.686;37.848;2023-02-10T06:23:07;100354.47;;;18.53;34.49
47785;BME280;35233;55.686;37.848;2023-02-10T06:25:32;100346.78;;;18.47;34.65
47785;BME280;35233;55.686;37.848;2023-02-10T06:28:01;100333.56;;;18.62;34.10
47785;BME280;35233;55.686;37.848;2023-02-10T06:30:26;100344.50;;;18.57;34.24
47785;BME280;35233;55.686;37.848;2023-02-10T06:32:52;100341.88;;;18.55;34.40
47785;BME280;35233;55.686;37.848;2023-02-10T06:35:17;100332.75;;;18.60;34.18
47785;BME280;35233;55.686;37.848;2023-02-10T06:37:43;100329.94;;;18.63;34.65
47785;BME280;35233;55.686;37.848;2023-02-10T06:40:09;100314.69;;;18.65;34.47
47785;BME280;35233;55.686;37.848;2023-02-10T06:42:35;100318.38;;;18.62;34.77
47785;BME280;35233;55.686;37.848;2023-02-10T06:45:00;100309.88;;;18.71;34.55
47785;BME280;35233;55.686;37.848;2023-02-10T06:47:26;100313.72;;;18.66;34.75
47785;BME280;35233;55.686;37.848;2023-02-10T06:49:52;100321.16;;;18.78;34.56
47785;BME280;35233;55.686;37.848;2023-02-10T06:52:17;100311.56;;;18.74;34.78
47785;BME280;35233;55.686;37.848;2023-02-10T06:54:43;100309.75;;;18.73;35.41
47785;BME280;35233;55.686;37.848;2023-02-10T06:57:09;100303.56;;;18.72;34.75
47785;BME280;35233;55.686;37.848;2023-02-10T06:59:35;100290.84;;;18.77;35.04
47785;BME280;35233;55.686;37.848;2023-02-10T07:02:01;100280.34;;;18.90;34.47
47785;BME280;35233;55.686;37.848;2023-02-10T07:04:31;100272.78;;;18.98;34.40
47785;BME280;35233;55.686;37.848;2023-02-10T07:06:57;100259.22;;;19.02;34.93
47785;BME280;35233;55.686;37.848;2023-02-10T07:09:23;100253.28;;;19.12;34.49
47785;BME280;35233;55.686;37.848;2023-02-10T07:11:49;100231.47;;;19.20;34.52
47785;BME280;35233;55.686;37.848;2023-02-10T07:14:16;100213.47;;;19.22;34.32
47785;BME280;35233;55.686;37.848;2023-02-10T07:16:41;100218.38;;;19.14;34.85
47785;BME280;35233;55.686;37.848;2023-02-10T07:19:07;100224.06;;;19.08;34.79
47785;BME280;35233;55.686;37.848;2023-02-10T07:21:32;100208.28;;;19.19;34.53
47785;BME280;35233;55.686;37.848;2023-02-10T07:23:58;100200.25;;;19.19;33.95
47785;BME280;35233;55.686;37.848;2023-02-10T07:26:25;100203.38;;;19.27;34.24
47785;BME280;35233;55.686;37.848;2023-02-10T07:28:51;100185.94;;;19.20;34.28
47785;BME280;35233;55.686;37.848;2023-02-10T07:31:17;100191.19;;;19.21;34.62
47785;BME280;35233;55.686;37.848;2023-02-10T07:33:42;100189.19;;;19.25;34.62
47785;BME280;35233;55.686;37.848;2023-02-10T07:36:08;100182.63;;;19.31;33.92
47785;BME280;35233;55.686;37.848;2023-02-10T07:38:34;100169.69;;;19.23;33.88
47785;BME280;35233;55.686;37.848;2023-02-10T07:40:59;100175.47;;;19.31;34.07
47785;BME280;35233;55.686;37.848;2023-02-10T07:43:25;100173.06;;;19.27;34.11
47785;BME280;35233;55.686;37.848;2023-02-10T07:45:50;100170.03;;;19.33;34.16
47785;BME280;35233;55.686;37.848;2023-02-10T07:48:17;100172.88;;;19.45;33.67
47785;BME280;35233;55.686;37.848;2023-02-10T07:50:43;100154.81;;;19.49;34.09
47785;BME280;35233;55.686;37.848;2023-02-10T07:53:09;100148.16;;;19.56;34.03
47785;BME280;35233;55.686;37.848;2023-02-10T07:55:36;100157.50;;;19.65;33.86
47785;BME280;35233;55.686;37.848;2023-02-10T07:58:03;100174.88;;;19.74;33.81
47785;BME280;35233;55.686;37.848;2023-02-10T08:00:29;100169.31;;;19.77;33.83
47785;BME280;35233;55.686;37.848;2023-02-10T08:02:54;100151.34;;;19.79;33.55
47785;BME280;35233;55.686;37.848;2023-02-10T08:05:20;100143.50;;;19.76;33.94
47785;BME280;35233;55.686;37.848;2023-02-10T08:07:46;100136.47;;;19.73;33.92
47785;BME280;35233;55.686;37.848;2023-02-10T08:10:12;100124.13;;;19.71;33.78
47785;BME280;35233;55.686;37.848;2023-02-10T08:12:38;100131.00;;;19.75;33.84
47785;BME280;35233;55.686;37.848;2023-02-10T08:15:05;100151.00;;;19.69;33.88
47785;BME280;35233;55.686;37.848;2023-02-10T08:17:31;100129.22;;;19.75;33.89
47785;BME280;35233;55.686;37.848;2023-02-10T08:19:56;100130.94;;;19.76;33.97
47785;BME280;35233;55.686;37.848;2023-02-10T08:22:22;100134.47;;;19.77;34.17
47785;BME280;35233;55.686;37.848;2023-02-10T08:24:47;100138.81;;;19.79;34.23
47785;BME280;35233;55.686;37.848;2023-02-10T08:27:13;100122.03;;;19.76;33.72
47785;BME280;35233;55.686;37.848;2023-02-10T08:29:39;100133.50;;;19.78;34.06
47785;BME280;35233;55.686;37.848;2023-02-10T08:32:04;100128.94;;;19.80;33.78
47785;BME280;35233;55.686;37.848;2023-02-10T08:34:29;100128.69;;;19.84;33.50
47785;BME280;35233;55.686;37.848;2023-02-10T08:36:55;100134.22;;;19.81;33.54
47785;BME280;35233;55.686;37.848;2023-02-10T08:39:21;100141.31;;;19.82;33.46
47785;BME280;35233;55.686;37.848;2023-02-10T08:41:46;100124.06;;;19.86;33.12
47785;BME280;35233;55.686;37.848;2023-02-10T08:44:12;100117.78;;;19.87;33.41
47785;BME280;35233;55.686;37.848;2023-02-10T08:46:38;100115.56;;;19.94;33.52
47785;BME280;35233;55.686;37.848;2023-02-10T08:49:04;100110.69;;;20.01;33.31
47785;BME280;35233;55.686;37.848;2023-02-10T08:51:30;100105.75;;;20.09;34.65
47785;BME280;35233;55.686;37.848;2023-02-10T08:53:57;100098.19;;;20.16;35.41
47785;BME280;35233;55.686;37.848;2023-02-10T08:56:24;100092.47;;;20.22;34.68
47785;BME280;35233;55.686;37.848;2023-02-10T08:58:50;100066.09;;;20.14;34.63
47785;BME280;35233;55.686;37.848;2023-02-10T09:01:18;100073.38;;;20.12;34.17
47785;BME280;35233;55.686;37.848;2023-02-10T09:03:44;100067.63;;;20.18;33.87
47785;BME280;35233;55.686;37.848;2023-02-10T09:06:19;100073.78;;;20.34;33.73
47785;BME280;35233;55.686;37.848;2023-02-10T09:08:45;100068.69;;;20.30;33.59
47785;BME280;35233;55.686;37.848;2023-02-10T09:11:16;100062.19;;;20.34;33.62
47785;BME280;35233;55.686;37.848;2023-02-10T09:13:42;100051.16;;;20.39;33.39
47785;BME280;35233;55.686;37.848;2023-02-10T09:16:07;100041.78;;;20.46;33.07
47785;BME280;35233;55.686;37.848;2023-02-10T09:18:33;100033.34;;;20.52;32.92
47785;BME280;35233;55.686;37.848;2023-02-10T09:21:00;100025.13;;;20.55;33.32
47785;BME280;35233;55.686;37.848;2023-02-10T09:23:26;100013.78;;;20.50;33.33
47785;BME280;35233;55.686;37.848;2023-02-10T09:25:55;100007.53;;;20.49;33.39
47785;BME280;35233;55.686;37.848;2023-02-10T09:28:20;100014.63;;;20.50;33.48
47785;BME280;35233;55.686;37.848;2023-02-10T09:30:46;100003.91;;;20.50;33.39
47785;BME280;35233;55.686;37.848;2023-02-10T09:33:13;100006.50;;;20.52;33.02
47785;BME280;35233;55.686;37.848;2023-02-10T09:35:38;100005.47;;;20.54;32.82
47785;BME280;35233;55.686;37.848;2023-02-10T09:38:06;99998.28;;;20.55;32.89
47785;BME280;35233;55.686;37.848;2023-02-10T09:40:34;99988.97;;;20.61;32.69
47785;BME280;35233;55.686;37.848;2023-02-10T09:45:40;99985.22;;;20.63;32.82
47785;BME280;35233;55.686;37.848;2023-02-10T09:53:25;99945.94;;;20.48;32.92
47785;BME280;35233;55.686;37.848;2023-02-10T09:56:00;99940.06;;;20.41;32.72
47785;BME280;35233;55.686;37.848;2023-02-10T09:58:45;99932.53;;;20.33;32.67
47785;BME280;35233;55.686;37.848;2023-02-10T10:01:32;99928.44;;;20.28;32.79
47785;BME280;35233;55.686;37.848;2023-02-10T10:04:04;99927.53;;;20.27;32.75
47785;BME280;35233;55.686;37.848;2023-02-10T10:06:55;99934.66;;;20.28;32.46
47785;BME280;35233;55.686;37.848;2023-02-10T10:09:43;99946.44;;;20.26;32.72
47785;BME280;35233;55.686;37.848;2023-02-10T10:12:15;99947.09;;;20.29;32.39
47785;BME280;35233;55.686;37.848;2023-02-10T10:14:41;99954.22;;;20.30;32.66
47785;BME280;35233;55.686;37.848;2023-02-10T10:17:37;99954.75;;;20.35;32.54
47785;BME280;35233;55.686;37.848;2023-02-10T10:31:11;99946.31;;;20.42;31.92
47785;BME280;35233;55.686;37.848;2023-02-10T10:33:51;99940.94;;;20.42;32.03
47785;BME280;35233;55.686;37.848;2023-02-10T10:36:23;99937.31;;;20.43;32.24
47785;BME280;35233;55.686;37.848;2023-02-10T10:38:54;99922.06;;;20.43;32.28
47785;BME280;35233;55.686;37.848;2023-02-10T10:41:26;99918.72;;;20.40;32.01
47785;BME280;35233;55.686;37.848;2023-02-10T10:43:55;99912.59;;;20.38;32.39
47785;BME280;35233;55.686;37.848;2023-02-10T10:46:26;99889.41;;;20.37;32.11
47785;BME280;35233;55.686;37.848;2023-02-10T10:48:53;99866.19;;;20.35;32.07
47785;BME280;35233;55.686;37.848;2023-02-10T10:51:18;99878.69;;;20.37;32.21
47785;BME280;35233;55.686;37.848;2023-02-10T10:53:48;99877.78;;;20.36;32.27
47785;BME280;35233;55.686;37.848;2023-02-10T10:59:04;99873.31;;;20.37;32.02
47785;BME280;35233;55.686;37.848;2023-02-10T11:01:38;99871.78;;;20.32;32.12
47785;BME280;35233;55.686;37.848;2023-02-10T11:04:18;99873.88;;;20.27;31.91
47785;BME280;35233;55.686;37.848;2023-02-10T11:06:48;99864.31;;;20.23;32.10
47785;BME280;35233;55.686;37.848;2023-02-10T11:09:24;99862.63;;;20.22;32.12
47785;BME280;35233;55.686;37.848;2023-02-10T11:11:53;99865.31;;;20.22;31.96
47785;BME280;35233;55.686;37.848;2023-02-10T11:14:25;99857.53;;;20.18;31.88
47785;BME280;35233;55.686;37.848;2023-02-10T11:16:54;99835.22;;;20.17;31.99
47785;BME280;35233;55.686;37.848;2023-02-10T11:19:27;99849.59;;;20.16;31.79
47785;BME280;35233;55.686;37.848;2023-02-10T11:21:53;99832.28;;;20.07;31.91
47785;BME280;35233;55.686;37.848;2023-02-10T11:24:25;99833.59;;;20.15;31.86
47785;BME280;35233;55.686;37.848;2023-02-10T11:26:59;99829.84;;;20.17;31.74
47785;BME280;35233;55.686;37.848;2023-02-10T11:29:26;99836.94;;;20.18;32.01
47785;BME280;35233;55.686;37.848;2023-02-10T11:31:53;99817.00;;;20.22;31.61
47785;BME280;35233;55.686;37.848;2023-02-10T11:34:20;99819.69;;;20.22;31.51
47785;BME280;35233;55.686;37.848;2023-02-10T11:36:47;99815.38;;;20.20;31.95
47785;BME280;35233;55.686;37.848;2023-02-10T11:39:30;99818.16;;;20.18;31.71
47785;BME280;35233;55.686;37.848;2023-02-10T11:41:57;99806.50;;;20.19;31.85
47785;BME280;35233;55.686;37.848;2023-02-10T11:44:32;99797.25;;;19.96;32.19
47785;BME280;35233;55.686;37.848;2023-02-10T11:47:00;99793.66;;;20.10;31.89
47785;BME280;35233;55.686;37.848;2023-02-10T11:49:27;99806.41;;;20.06;31.83
47785;BME280;35233;55.686;37.848;2023-02-10T11:51:57;99800.00;;;20.09;32.01
47785;BME280;35233;55.686;37.848;2023-02-10T11:54:24;99798.94;;;20.11;32.10
47785;BME280;35233;55.686;37.848;2023-02-10T12:05:13;99800.91;;;20.22;31.43
47785;BME280;35233;55.686;37.848;2023-02-10T12:27:03;99749.38;;;20.17;31.55
47785;BME280;35233;55.686;37.848;2023-02-10T12:38:37;99715.94;;;20.35;31.41
47785;BME280;35233;55.686;37.848;2023-02-10T12:41:18;99724.75;;;20.25;31.42
47785;BME280;35233;55.686;37.848;2023-02-10T12:43:58;99697.91;;;20.25;31.42
47785;BME280;35233;55.686;37.848;2023-02-10T12:52:00;99714.22;;;20.22;31.12
47785;BME280;35233;55.686;37.848;2023-02-10T12:54:41;99706.81;;;20.25;31.10
47785;BME280;35233;55.686;37.848;2023-02-10T12:59:55;99705.63;;;20.17;31.36
47785;BME280;35233;55.686;37.848;2023-02-10T13:02:37;99716.69;;;20.25;30.92
47785;BME280;35233;55.686;37.848;2023-02-10T13:05:11;99694.69;;;20.20;31.18
47785;BME280;35233;55.686;37.848;2023-02-10T13:12:46;99720.84;;;20.16;31.39
47785;BME280;35233;55.686;37.848;2023-02-10T13:15:18;99716.00;;;20.08;31.25
47785;BME280;35233;55.686;37.848;2023-02-10T13:17:50;99706.88;;;20.11;31.19
47785;BME280;35233;55.686;37.848;2023-02-10T13:25:55;99679.44;;;20.20;31.29
47785;BME280;35233;55.686;37.848;2023-02-10T13:31:23;99665.06;;;20.21;31.42
47785;BME280;35233;55.686;37.848;2023-02-10T13:36:44;99675.13;;;20.05;31.12
47785;BME280;35233;55.686;37.848;2023-02-10T13:39:25;99673.50;;;20.02;31.02
47785;BME280;35233;55.686;37.848;2023-02-10T13:42:08;99663.75;;;20.01;31.07
47785;BME280;35233;55.686;37.848;2023-02-10T13:44:36;99663.28;;;19.95;31.60
47785;BME280;35233;55.686;37.848;2023-02-10T13:47:12;99668.44;;;19.98;31.28
47785;BME280;35233;55.686;37.848;2023-02-10T13:52:20;99674.53;;;19.87;31.34
47785;BME280;35233;55.686;37.848;2023-02-10T13:55:00;99668.75;;;19.93;31.35
47785;BME280;35233;55.686;37.848;2023-02-10T13:57:35;99683.44;;;19.87;31.66
47785;BME280;35233;55.686;37.848;2023-02-10T14:00:14;99670.75;;;19.89;31.26
47785;BME280;35233;55.686;37.848;2023-02-10T14:02:44;99677.50;;;19.82;31.06
47785;BME280;35233;55.686;37.848;2023-02-10T14:05:29;99685.75;;;19.79;31.57
47785;BME280;35233;55.686;37.848;2023-02-10T14:07:55;99690.41;;;19.90;31.19
47785;BME280;35233;55.686;37.848;2023-02-10T14:13:25;99688.66;;;19.89;32.01
47785;BME280;35233;55.686;37.848;2023-02-10T14:16:06;99681.16;;;19.81;32.14
47785;BME280;35233;55.686;37.848;2023-02-10T14:18:37;99679.13;;;19.85;32.32
47785;BME280;35233;55.686;37.848;2023-02-10T14:21:10;99676.31;;;19.86;32.25
47785;BME280;35233;55.686;37.848;2023-02-10T14:23:39;99676.75;;;19.80;32.42
47785;BME280;35233;55.686;37.848;2023-02-10T14:26:19;99668.91;;;19.77;32.40
47785;BME280;35233;55.686;37.848;2023-02-10T14:28:50;99667.28;;;19.75;32.65
47785;BME280;35233;55.686;37.848;2023-02-10T14:31:25;99659.56;;;19.70;32.56
47785;BME280;35233;55.686;37.848;2023-02-10T14:33:57;99685.84;;;19.78;33.02
47785;BME280;35233;55.686;37.848;2023-02-10T14:36:25;99665.78;;;19.71;32.53
47785;BME280;35233;55.686;37.848;2023-02-10T14:38:54;99660.66;;;19.80;32.70
47785;BME280;35233;55.686;37.848;2023-02-10T14:41:21;99671.59;;;19.77;32.90
47785;BME280;35233;55.686;37.848;2023-02-10T14:43:48;99657.44;;;19.75;32.69
47785;BME280;35233;55.686;37.848;2023-02-10T14:46:26;99667.69;;;19.68;32.91
47785;BME280;35233;55.686;37.848;2023-02-10T14:51:24;99668.16;;;19.75;32.71